createdAt,value
2018-04-11T00:00:31.987Z,96.50
2018-04-11T00:03:33.266Z,96.10
2018-04-11T00:06:34.602Z,95.70
2018-04-11T00:09:35.935Z,95.70
2018-04-11T00:12:37.933Z,95.90
2018-04-11T00:15:39.168Z,95.90
2018-04-11T00:18:41.212Z,95.70
2018-04-11T00:21:42.513Z,95.70
2018-04-11T00:24:43.864Z,95.50
2018-04-11T00:27:45.110Z,95.20
2018-04-11T00:30:46.387Z,95.60
2018-04-11T00:33:47.674Z,95.50
2018-04-11T00:36:50.143Z,95.50
2018-04-11T00:39:51.692Z,95.40
2018-04-11T00:42:53.004Z,95.50
2018-04-11T00:45:55.230Z,95.30
2018-04-11T00:48:56.530Z,95.20
2018-04-11T00:51:57.826Z,95.10
2018-04-11T00:54:59.851Z,95.80
2018-04-11T00:58:01.168Z,95.70
2018-04-11T01:01:03.243Z,95.40
2018-04-11T01:04:05.274Z,94.90
2018-04-11T01:07:06.614Z,94.90
2018-04-11T01:10:07.930Z,95.00
2018-04-11T01:13:09.239Z,95.20
2018-04-11T01:16:10.556Z,95.50
2018-04-11T01:19:11.839Z,95.30
2018-04-11T01:22:13.898Z,95.40
2018-04-11T01:25:15.242Z,95.30
2018-04-11T01:28:16.513Z,95.30
2018-04-11T01:31:17.770Z,95.50
2018-04-11T01:34:19.817Z,95.20
2018-04-11T01:37:21.487Z,95.00
2018-04-11T01:40:23.186Z,95.20
2018-04-11T01:43:24.535Z,95.20
2018-04-11T01:46:26.091Z,95.10
2018-04-11T01:49:27.400Z,95.20
2018-04-11T01:52:28.688Z,95.10
2018-04-11T01:55:30.003Z,95.40
2018-04-11T01:58:31.342Z,95.60
2018-04-11T02:01:33.392Z,96.00
2018-04-11T02:04:34.738Z,95.90
2018-04-11T02:07:36.042Z,95.70
2018-04-11T02:10:37.344Z,95.70
2018-04-11T02:13:38.618Z,95.60
2018-04-11T02:16:39.858Z,95.40
2018-04-11T02:19:41.084Z,95.10
2018-04-11T02:22:42.333Z,95.10
2018-04-11T02:25:43.571Z,95.10
2018-04-11T02:28:44.822Z,95.30
2018-04-11T02:31:46.063Z,95.40
2018-04-11T02:34:48.089Z,96.00
2018-04-11T02:37:49.794Z,95.90
2018-04-11T02:40:51.118Z,96.10
2018-04-11T02:43:52.765Z,96.10
2018-04-11T02:46:54.236Z,95.80
2018-04-11T02:49:56.009Z,96.10
2018-04-11T02:52:57.282Z,96.10
2018-04-11T02:55:58.670Z,95.90
2018-04-11T02:58:59.986Z,95.70
2018-04-11T03:02:01.285Z,96.00
2018-04-11T03:05:02.589Z,96.50
2018-04-11T03:08:03.893Z,96.70
2018-04-11T03:11:05.259Z,96.60
2018-04-11T03:14:06.621Z,97.10
2018-04-11T03:17:07.899Z,97.50
2018-04-11T03:20:09.131Z,97.60
2018-04-11T03:23:11.141Z,97.30
2018-04-11T03:26:12.390Z,97.30
2018-04-11T03:29:13.652Z,97.70
2018-04-11T03:32:14.912Z,97.70
2018-04-11T03:35:16.890Z,97.80
2018-04-11T03:38:19.455Z,97.70
2018-04-11T03:41:20.921Z,97.60
2018-04-11T03:44:22.255Z,97.70
2018-04-11T03:47:23.828Z,97.00
2018-04-11T03:50:25.172Z,97.10
2018-04-11T03:53:26.497Z,97.30
2018-04-11T03:56:27.781Z,97.20
2018-04-11T03:59:29.785Z,97.20
2018-04-11T04:02:31.673Z,97.10
2018-04-11T04:05:32.990Z,97.60
2018-04-11T04:08:34.990Z,96.70
2018-04-11T04:11:36.982Z,96.90
2018-04-11T04:14:56.777Z,96.90
2018-04-11T04:18:16.599Z,96.80
2018-04-11T04:21:17.904Z,96.80
2018-04-11T04:24:19.505Z,96.90
2018-04-11T04:27:21.041Z,96.90
2018-04-11T04:30:22.581Z,97.00
2018-04-11T04:33:24.036Z,97.20
2018-04-11T04:36:25.518Z,97.20
2018-04-11T04:39:26.821Z,97.20
2018-04-11T04:42:28.076Z,97.40
2018-04-11T04:45:29.333Z,97.30
2018-04-11T04:48:30.581Z,97.30
2018-04-11T04:51:32.450Z,97.40
2018-04-11T04:54:34.147Z,97.40
2018-04-11T04:57:36.174Z,97.40
2018-04-11T05:00:37.447Z,97.40
2018-04-11T05:03:38.731Z,97.40
2018-04-11T05:06:40.015Z,97.30
2018-04-11T05:09:41.269Z,97.40
2018-04-11T05:12:42.495Z,97.50
2018-04-11T05:15:43.786Z,97.70
2018-04-11T05:18:45.063Z,97.90
2018-04-11T05:21:46.374Z,97.80
2018-04-11T05:24:48.422Z,97.50
2018-04-11T05:27:50.434Z,97.50
2018-04-11T05:30:51.756Z,97.60
2018-04-11T05:33:53.092Z,97.60
2018-04-11T05:36:54.927Z,97.70
2018-04-11T05:39:56.949Z,97.80
2018-04-11T05:42:58.261Z,97.80
2018-04-11T05:45:59.563Z,97.60
2018-04-11T05:49:00.832Z,97.60
2018-04-11T05:52:02.141Z,97.70
2018-04-11T05:55:03.393Z,97.60
2018-04-11T05:58:04.657Z,97.50
2018-04-11T06:01:05.896Z,97.70
2018-04-11T06:04:07.142Z,97.50
2018-04-11T06:07:08.385Z,97.50
2018-04-11T06:10:10.382Z,97.60
2018-04-11T06:13:11.674Z,97.60
2018-04-11T06:16:12.950Z,97.60
2018-04-11T06:19:14.207Z,97.70
2018-04-11T06:22:15.891Z,97.60
2018-04-11T06:25:18.006Z,97.70
2018-04-11T06:28:20.262Z,97.70
2018-04-11T06:31:21.805Z,97.60
2018-04-11T06:34:23.236Z,97.90
2018-04-11T06:37:25.330Z,98.00
2018-04-11T06:40:26.643Z,97.90
2018-04-11T06:43:27.951Z,97.90
2018-04-11T06:46:29.995Z,98.10
2018-04-11T06:49:31.366Z,98.00
2018-04-11T06:52:32.691Z,98.20
2018-04-11T06:55:33.980Z,97.80
2018-04-11T06:58:35.459Z,97.80
2018-04-11T07:01:36.754Z,98.10
2018-04-11T07:04:38.821Z,98.10
2018-04-11T07:07:40.106Z,98.10
2018-04-11T07:10:42.148Z,97.70
2018-04-11T07:13:43.472Z,97.60
2018-04-11T07:16:44.790Z,97.80
2018-04-11T07:19:46.095Z,97.90
2018-04-11T07:22:47.432Z,98.10
2018-04-11T07:25:49.749Z,98.40
2018-04-11T07:28:51.088Z,98.40
2018-04-11T07:31:53.165Z,98.20
2018-04-11T07:34:55.294Z,98.50
2018-04-11T07:37:56.623Z,98.40
2018-04-11T07:40:58.007Z,98.30
2018-04-11T07:43:59.313Z,98.20
2018-04-11T07:47:00.632Z,98.60
2018-04-11T07:50:01.965Z,98.20
2018-04-11T07:53:03.306Z,98.30
2018-04-11T07:56:04.639Z,98.20
2018-04-11T07:59:05.948Z,98.40
2018-04-11T08:02:07.299Z,98.40
2018-04-11T08:05:08.665Z,98.50
2018-04-11T08:08:10.031Z,98.60
2018-04-11T08:11:11.369Z,98.50
2018-04-11T08:14:12.734Z,98.70
2018-04-11T08:17:14.174Z,98.70
2018-04-11T08:20:16.263Z,99.20
2018-04-11T08:23:17.637Z,99.00
2018-04-11T08:26:18.998Z,98.70
2018-04-11T08:29:20.320Z,99.20
2018-04-11T08:32:21.632Z,99.00
2018-04-11T08:35:23.191Z,99.00
2018-04-11T08:38:24.627Z,99.10
2018-04-11T08:41:25.994Z,99.00
2018-04-11T08:44:27.363Z,98.70
2018-04-11T08:47:28.704Z,98.60
2018-04-11T08:50:30.054Z,98.90
2018-04-11T08:53:31.395Z,99.10
2018-04-11T08:56:32.708Z,98.80
2018-04-11T08:59:34.049Z,98.70
2018-04-11T09:02:35.387Z,99.00
2018-04-11T09:05:36.771Z,98.70
2018-04-11T09:08:38.096Z,98.70
2018-04-11T09:11:40.151Z,99.10
2018-04-11T09:14:41.526Z,99.00
2018-04-11T09:17:42.862Z,98.80
2018-04-11T09:20:44.237Z,99.10
2018-04-11T09:23:45.537Z,98.60
2018-04-11T09:26:47.568Z,98.50
2018-04-11T09:29:48.875Z,98.40
2018-04-11T09:32:50.242Z,98.20
2018-04-11T09:35:51.607Z,98.10
2018-04-11T09:38:52.938Z,98.70
2018-04-11T09:41:54.554Z,98.00
2018-04-11T09:44:55.832Z,98.20
2018-04-11T09:47:57.962Z,97.60
2018-04-11T09:50:59.336Z,97.60
2018-04-11T09:54:00.672Z,96.90
2018-04-11T09:57:02.006Z,97.20
2018-04-11T10:00:04.134Z,97.20
2018-04-11T10:03:05.483Z,97.10
2018-04-11T10:06:06.825Z,97.30
2018-04-11T10:09:08.166Z,96.80
2018-04-11T10:12:09.526Z,96.60
2018-04-11T10:15:10.880Z,97.20
2018-04-11T10:18:12.269Z,97.20
2018-04-11T10:21:14.389Z,97.30
2018-04-11T10:24:15.700Z,97.30
2018-04-11T10:27:17.029Z,97.70
2018-04-11T10:30:18.341Z,97.50
2018-04-11T10:33:19.657Z,97.50
2018-04-11T10:36:21.010Z,97.30
2018-04-11T10:39:22.353Z,97.40
2018-04-11T10:42:24.401Z,97.60
2018-04-11T10:45:25.709Z,97.50
2018-04-11T10:48:27.062Z,98.10
2018-04-11T10:51:29.247Z,97.60
2018-04-11T10:54:31.353Z,97.20
2018-04-11T10:57:32.669Z,97.10
2018-04-11T11:00:34.017Z,96.60
2018-04-11T11:03:35.302Z,96.20
2018-04-11T11:06:36.672Z,95.80
2018-04-11T11:09:38.780Z,95.60
2018-04-11T11:12:40.244Z,95.20
2018-04-11T11:15:41.620Z,96.10
2018-04-11T11:18:43.010Z,96.40
2018-04-11T11:21:44.336Z,95.80
2018-04-11T11:24:46.424Z,95.50
2018-04-11T11:27:48.517Z,96.00
2018-04-11T11:30:49.849Z,95.90
2018-04-11T11:33:51.183Z,95.00
2018-04-11T11:36:52.566Z,95.40
2018-04-11T11:39:53.903Z,94.90
2018-04-11T11:42:55.259Z,94.80
2018-04-11T11:46:03.600Z,94.40
2018-04-11T11:49:04.944Z,94.40
2018-04-11T11:52:06.308Z,94.90
2018-04-11T11:55:08.434Z,94.80
2018-04-11T11:58:09.799Z,94.60
2018-04-11T12:01:11.126Z,94.10
2018-04-11T12:04:12.475Z,94.90
2018-04-11T12:07:13.846Z,95.70
2018-04-11T12:10:15.212Z,95.90
2018-04-11T12:13:16.812Z,95.20
2018-04-11T12:16:18.173Z,94.30
2018-04-11T12:19:19.637Z,94.70
2018-04-11T12:22:20.975Z,95.50
2018-04-11T12:25:22.360Z,95.80
2018-04-11T12:28:23.737Z,96.00
2018-04-11T12:31:25.074Z,96.30
2018-04-11T12:34:26.437Z,96.20
2018-04-11T12:37:28.515Z,96.40
2018-04-11T12:40:30.591Z,96.50
2018-04-11T12:43:32.658Z,97.10
2018-04-11T12:46:34.004Z,97.10
2018-04-11T12:49:35.353Z,97.10
2018-04-11T12:52:37.485Z,96.30
2018-04-11T12:55:38.875Z,96.00
2018-04-11T12:58:40.258Z,96.50
2018-04-11T13:01:41.631Z,95.90
2018-04-11T13:04:43.013Z,95.70
2018-04-11T13:07:44.371Z,95.70
2018-04-11T13:10:45.653Z,96.30
2018-04-11T13:13:47.070Z,95.70
2018-04-11T13:16:48.466Z,96.60
2018-04-11T13:19:49.872Z,95.90
2018-04-11T13:22:51.233Z,95.00
2018-04-11T13:25:52.574Z,95.00
2018-04-11T13:28:53.949Z,95.50
2018-04-11T13:31:55.379Z,94.80
2018-04-11T13:34:57.455Z,95.80
2018-04-11T13:38:00.274Z,95.30
2018-04-11T13:41:03.281Z,95.10
2018-04-11T13:44:04.690Z,95.70
2018-04-11T13:47:07.153Z,97.10
2018-04-11T13:50:09.630Z,97.00
2018-04-11T13:53:12.048Z,96.70
2018-04-11T13:56:16.267Z,97.30
2018-04-11T13:59:18.578Z,97.20
2018-04-11T14:02:20.160Z,96.80
2018-04-11T14:05:21.634Z,97.00
2018-04-11T14:08:23.755Z,96.50
2018-04-11T14:11:25.130Z,96.40
2018-04-11T14:14:26.580Z,97.20
2018-04-11T14:17:27.939Z,96.90
2018-04-11T14:20:29.309Z,96.10
2018-04-11T14:23:30.649Z,96.40
2018-04-11T14:26:32.767Z,95.70
2018-04-11T14:29:34.163Z,95.70
2018-04-11T14:32:35.591Z,95.80
2018-04-11T14:35:37.563Z,96.00
2018-04-11T14:38:38.985Z,96.00
2018-04-11T14:41:40.411Z,96.00
2018-04-11T14:44:41.802Z,96.40
2018-04-11T14:47:43.219Z,96.20
2018-04-11T14:50:45.302Z,95.50
2018-04-11T14:53:47.426Z,94.70
2018-04-11T14:56:48.774Z,94.70
2018-04-11T14:59:50.218Z,94.10
2018-04-11T15:02:52.378Z,93.20
2018-04-11T15:05:53.783Z,93.10
2018-04-11T15:08:55.208Z,93.90
2018-04-11T15:11:56.648Z,94.70
2018-04-11T15:14:58.033Z,92.80
2018-04-11T15:17:59.472Z,92.40
2018-04-11T15:21:00.848Z,92.30
2018-04-11T15:24:02.917Z,91.80
2018-04-11T15:27:04.343Z,92.60
2018-04-11T15:30:06.473Z,93.80
2018-04-11T15:33:07.871Z,93.70
2018-04-11T15:36:09.230Z,92.70
2018-04-11T15:39:11.010Z,92.30
2018-04-11T15:42:12.383Z,91.80
2018-04-11T15:45:13.727Z,92.60
2018-04-11T15:48:15.095Z,92.50
2018-04-11T15:51:16.473Z,93.40
2018-04-11T15:54:17.817Z,91.60
2018-04-11T15:57:19.180Z,91.90
2018-04-11T16:00:20.570Z,91.90
2018-04-11T16:03:21.984Z,91.30
2018-04-11T16:06:23.319Z,91.90
2018-04-11T16:09:24.696Z,92.10
2018-04-11T16:12:26.025Z,92.00
2018-04-11T16:15:27.406Z,91.10
2018-04-11T16:18:28.757Z,91.30
2018-04-11T16:21:30.113Z,91.30
2018-04-11T16:24:31.496Z,91.40
2018-04-11T16:27:32.901Z,90.70
2018-04-11T16:30:34.312Z,90.70
2018-04-11T16:33:35.643Z,91.50
2018-04-11T16:36:37.033Z,91.10
2018-04-11T16:39:39.117Z,90.60
2018-04-11T16:42:40.443Z,90.70
2018-04-11T16:45:41.779Z,91.10
2018-04-11T16:48:43.111Z,90.70
2018-04-11T16:51:44.460Z,91.40
2018-04-11T16:54:45.829Z,92.10
2018-04-11T16:57:47.127Z,91.00
2018-04-11T17:00:48.490Z,91.20
2018-04-11T17:03:49.887Z,91.20
2018-04-11T17:06:51.962Z,91.00
2018-04-11T17:09:53.368Z,90.90
2018-04-11T17:12:54.717Z,91.10
2018-04-11T17:15:56.089Z,90.90
2018-04-11T17:18:57.443Z,91.00
2018-04-11T17:22:18.135Z,91.10
2018-04-11T17:25:38.113Z,91.10
2018-04-11T17:28:57.891Z,91.10
2018-04-11T17:31:59.267Z,91.20
2018-04-11T17:35:00.554Z,91.50
2018-04-11T17:38:01.929Z,91.60
2018-04-11T17:41:03.305Z,92.00
2018-04-11T17:44:04.667Z,92.00
2018-04-11T17:47:05.999Z,92.30
2018-04-11T17:50:07.367Z,92.30
2018-04-11T17:53:08.688Z,92.00
2018-04-11T17:56:10.760Z,92.60
2018-04-11T17:59:12.820Z,92.80
2018-04-11T18:02:14.183Z,92.70
2018-04-11T18:05:15.529Z,92.60
2018-04-11T18:08:16.873Z,92.80
2018-04-11T18:11:18.203Z,92.90
2018-04-11T18:14:20.328Z,93.00
2018-04-11T18:17:21.699Z,93.00
2018-04-11T18:20:23.078Z,93.10
2018-04-11T18:23:24.494Z,93.00
2018-04-11T18:26:25.842Z,93.10
2018-04-11T18:29:27.140Z,93.10
2018-04-11T18:32:28.499Z,93.10
2018-04-11T18:35:29.832Z,93.40
2018-04-11T18:38:31.195Z,93.50
2018-04-11T18:41:39.520Z,93.50
2018-04-11T18:44:40.858Z,93.30
2018-04-11T18:47:42.141Z,93.60
2018-04-11T18:50:43.552Z,93.50
2018-04-11T18:53:44.871Z,93.30
2018-04-11T18:56:46.181Z,93.20
2018-04-11T18:59:47.598Z,93.20
2018-04-11T19:02:48.924Z,93.20
2018-04-11T19:05:50.343Z,93.20
2018-04-11T19:08:51.681Z,93.20
2018-04-11T19:11:53.037Z,92.90
2018-04-11T19:14:54.413Z,93.00
2018-04-11T19:17:55.794Z,93.30
2018-04-11T19:20:57.165Z,93.10
2018-04-11T19:23:58.530Z,92.90
2018-04-11T19:27:01.360Z,93.30
2018-04-11T19:30:03.513Z,93.10
2018-04-11T19:33:04.847Z,93.10
2018-04-11T19:36:06.189Z,93.10
2018-04-11T19:39:07.553Z,93.10
2018-04-11T19:42:08.935Z,93.30
2018-04-11T19:45:10.277Z,93.60
2018-04-11T19:48:12.393Z,93.20
2018-04-11T19:51:13.746Z,93.20
2018-04-11T19:54:15.038Z,93.20
2018-04-11T19:57:16.394Z,92.90
2018-04-11T20:00:17.717Z,93.00
2018-04-11T20:03:19.831Z,93.20
2018-04-11T20:06:21.263Z,93.20
2018-04-11T20:09:23.363Z,93.20
2018-04-11T20:12:24.719Z,93.10
2018-04-11T20:15:26.083Z,93.20
2018-04-11T20:18:28.188Z,93.70
2018-04-11T20:21:30.247Z,93.40
2018-04-11T20:24:32.352Z,93.20
2018-04-11T20:27:33.711Z,93.20
2018-04-11T20:30:35.051Z,93.20
2018-04-11T20:33:37.098Z,93.60
2018-04-11T20:36:39.160Z,93.50
2018-04-11T20:39:40.732Z,93.50
2018-04-11T20:42:42.189Z,93.60
2018-04-11T20:45:43.597Z,93.50
2018-04-11T20:48:45.036Z,93.80
2018-04-11T20:51:46.671Z,94.10
2018-04-11T20:54:47.979Z,93.80
2018-04-11T20:57:49.587Z,94.00
2018-04-11T21:00:50.914Z,94.00
2018-04-11T21:03:52.256Z,94.00
2018-04-11T21:06:53.600Z,94.00
2018-04-11T21:09:57.183Z,94.10
2018-04-11T21:12:59.602Z,93.90
2018-04-11T21:16:01.357Z,93.90
2018-04-11T21:19:03.426Z,93.80
2018-04-11T21:22:04.917Z,93.80
2018-04-11T21:25:06.996Z,94.00
2018-04-11T21:28:10.074Z,93.90
2018-04-11T21:31:11.662Z,94.00
2018-04-11T21:34:13.263Z,94.00
2018-04-11T21:37:14.959Z,94.00
2018-04-11T21:40:16.733Z,94.00
2018-04-11T21:43:18.676Z,94.00
2018-04-11T21:46:20.028Z,93.90
2018-04-11T21:49:21.381Z,93.80
2018-04-11T21:52:22.709Z,93.80
2018-04-11T21:55:24.075Z,94.00
2018-04-11T21:58:25.389Z,93.80
2018-04-11T22:01:33.768Z,94.20
2018-04-11T22:04:35.147Z,94.10
2018-04-11T22:07:36.495Z,94.30
2018-04-11T22:10:37.862Z,94.50
2018-04-11T22:13:39.163Z,94.30
2018-04-11T22:16:40.514Z,94.60
2018-04-11T22:19:41.829Z,94.60
2018-04-11T22:22:43.902Z,94.30
2018-04-11T22:25:45.207Z,94.20
2018-04-11T22:28:46.549Z,94.80
2018-04-11T22:31:47.869Z,94.30
2018-04-11T22:34:49.594Z,94.60
2018-04-11T22:37:50.950Z,94.70
2018-04-11T22:40:53.037Z,94.90
2018-04-11T22:43:54.402Z,94.80
2018-04-11T22:46:56.504Z,95.50
2018-04-11T22:49:57.833Z,95.50
2018-04-11T22:52:59.170Z,95.60
2018-04-11T22:56:00.492Z,95.00
2018-04-11T22:59:01.833Z,94.90
2018-04-11T23:02:03.900Z,95.00
2018-04-11T23:05:05.210Z,94.60
2018-04-11T23:08:06.560Z,94.60
2018-04-11T23:11:08.643Z,95.20
2018-04-11T23:14:10.729Z,95.10
2018-04-11T23:17:12.105Z,95.10
2018-04-11T23:20:13.441Z,95.30
2018-04-11T23:23:15.516Z,95.50
2018-04-11T23:26:17.585Z,95.80
2018-04-11T23:29:19.175Z,95.80
2018-04-11T23:32:21.325Z,96.20
2018-04-11T23:35:23.456Z,96.10
2018-04-11T23:38:25.610Z,96.30
2018-04-11T23:41:26.989Z,96.30
2018-04-11T23:44:28.636Z,96.30
2018-04-11T23:47:30.065Z,96.50
2018-04-11T23:50:31.422Z,96.70
2018-04-11T23:53:32.837Z,96.70
2018-04-11T23:56:34.265Z,97.00
2018-04-11T23:59:35.594Z,96.60
